Maui, HI

6:33 PM HST on October 22, 2014 (GMT -1000)
Lower Pukalani | Change Station
CLOSE
Current Station
Personal Weather Station
Location: Pukalani, HI
Elevation: 1130 ft
Nearby Weather Stations

Elev 1130 ft 20.84 °N, 156.35 °W | Updated 3 seconds ago

Mostly Cloudy
Mostly Cloudy
71.6 °F
Feels Like 71.6 °F
N
0.0
Wind Variable Wind from South
Gusts 0.0 mph

Today
High -- | Low -- °F
--% Chance of Precip.
Yesterday
High -- | Low -- °F
Precip. -- in
6:23 AM 5:56 PM
Waning Crescent, 1% visible
Pressure 30.01 in
Visibility 10.0 miles
Clouds Few 1300 ft
Scattered Clouds 2000 ft
Mostly Cloudy 3300 ft
Dew Point 70 °F
Humidity 95%
Rainfall 1.11 in
Snow Depth Not available.
UV 0 out of 12
Pollen Not available.
Air Quality Not available.
Flu Activity Sporadic
METAR PHOG 230354Z 08003KT 10SM FEW013 SCT020 BKN033 24/23 A3000 RMK AO2 RAB02E11 SLP162 P0000 T02440228

More Conditions Fewer Conditions

Pressure 30.01 in
Visibility 10.0 miles
Clouds Few 1300 ft
Scattered Clouds 2000 ft
Mostly Cloudy 3300 ft
Dew Point 70 °F
Humidity 95%
Rainfall 1.11 in
Snow Depth Not available.
UV 0 out of 12
Pollen Not available.
Air Quality Not available.
Flu Activity Sporadic
METAR PHOG 230354Z 08003KT 10SM FEW013 SCT020 BKN033 24/23 A3000 RMK AO2 RAB02E11 SLP162 P0000 T02440228

More Conditions Fewer Conditions

10-Day Weather Forecast

Almanac

Astronomy

Oct. 22, 2014 Rise Set
Actual Time 6:23 AM HST 5:56 PM HST
Civil Twilight 6:01 AM HST 6:18 PM HST
Nautical Twilight 5:35 AM HST 6:44 PM HST
Astronomical Twilight 5:09 AM HST 7:10 PM HST
Moon 5:24 AM HST (10/22) 5:24 PM HST (10/22)
Length of Visible Light 12h 17m
Length of Day
11h 32m
Tomorrow will be 1m 5s shorter.
Waning Crescent, 1% of the Moon is Illuminated
Oct 23
Waning Crescent
Oct 23
New
Oct 30
First Quarter
Nov 6
Full
Nov 14
Last Quarter

Yesterday's Extremes

State Highs State Lows

Community

WunderPhotos

Upload Photos

1,764,154 photos uploaded!

Nearby

Snow Depth

Station Depth Elevation
No new snow has been reported.

Earthquake Activity

City Distance Mag. Time & Date
No recent earthquake activity has been reported nearby.
Minimum magnitude displayed is 2.5.

Coastal Water Temperatures

Place Temperature
No Stations Reporting

Nearby Weather Stations